Time;durP1;ratioP1;P1;durP2;ratioP2;P2;SDS_P1;SDS_P2;PMS_P1;PMS_P2;Temp;Humidity;BMP_temperature;BMP_pressure;BME280_temperature;BME280_humidity;BME280_pressure;Samples;Min_cycle;Max_cycle;Signal;HPM_P1;HPM_P2
2021/09/17 00:02:02;;;;;;;6.07;4.50;;;;;;;;;;4917216;29;20249;-83
2021/09/17 00:04:49;;;;;;;5.65;3.35;;;;;;;;;;4904138;29;20031;-82
2021/09/17 00:07:34;;;;;;;5.93;3.70;;;;;;;;;;4913109;29;20030;-83
2021/09/17 00:10:21;;;;;;;6.43;3.83;;;;;;;;;;4918524;29;20031;-83
2021/09/17 00:13:06;;;;;;;7.13;4.15;;;;;;;;;;4915848;29;20038;-82
2021/09/17 00:15:52;;;;;;;7.97;3.97;;;;;;;;;;4919054;29;20551;-83
2021/09/17 00:18:37;;;;;;;6.10;3.90;;;;;;;;;;4917227;29;20043;-83
2021/09/17 00:21:22;;;;;;;20.38;5.32;;;;;;;;;;4895853;29;20167;-83
2021/09/17 00:24:07;;;;;;;6.28;3.95;;;;;;;;;;4916480;29;20026;-83
2021/09/17 00:26:53;;;;;;;10.25;3.80;;;;;;;;;;4917680;29;20118;-85
2021/09/17 00:29:38;;;;;;;7.40;4.13;;;;;;;;;;4916578;29;20028;-84
2021/09/17 00:32:23;;;;;;;7.47;5.00;;;;;;;;;;4917669;29;20106;-83
2021/09/17 00:35:09;;;;;;;6.05;4.00;;;;;;;;;;4923583;29;20019;-83
2021/09/17 00:37:54;;;;;;;5.38;3.63;;;;;;;;;;4917421;29;20024;-84
2021/09/17 00:40:40;;;;;;;8.30;4.80;;;;;;;;;;4916478;29;20031;-85
2021/09/17 00:43:25;;;;;;;7.55;4.22;;;;;;;;;;4915972;29;20055;-84
2021/09/17 00:46:10;;;;;;;6.82;3.95;;;;;;;;;;4916039;29;20031;-85
2021/09/17 00:48:56;;;;;;;5.07;3.72;;;;;;;;;;4917125;29;20171;-85
2021/09/17 00:51:41;;;;;;;5.07;4.10;;;;;;;;;;4916179;29;20024;-84
2021/09/17 00:54:26;;;;;;;7.00;4.38;;;;;;;;;;4916429;29;20035;-84
2021/09/17 00:57:12;;;;;;;6.93;3.92;;;;;;;;;;4916469;29;20042;-83
2021/09/17 00:59:57;;;;;;;9.88;4.45;;;;;;;;;;4929394;29;20394;-84
2021/09/17 01:02:43;;;;;;;6.18;4.05;;;;;;;;;;4907516;29;20067;-84
2021/09/17 01:05:28;;;;;;;8.20;4.40;;;;;;;;;;4915593;29;20016;-84
2021/09/17 01:08:13;;;;;;;4.25;3.72;;;;;;;;;;4916929;29;20478;-84
2021/09/17 01:10:59;;;;;;;9.65;4.00;;;;;;;;;;4911859;29;20126;-84
2021/09/17 01:13:45;;;;;;;7.45;3.90;;;;;;;;;;4917197;29;20032;-83
2021/09/17 01:16:30;;;;;;;7.10;3.72;;;;;;;;;;4910438;29;20098;-83
2021/09/17 01:19:16;;;;;;;6.57;4.00;;;;;;;;;;4916949;29;20081;-82
2021/09/17 01:22:02;;;;;;;5.30;4.07;;;;;;;;;;4913402;29;20050;-83
2021/09/17 01:24:48;;;;;;;7.35;4.40;;;;;;;;;;4915374;29;20031;-83
2021/09/17 01:27:33;;;;;;;9.10;4.05;;;;;;;;;;4915959;29;20102;-84
2021/09/17 01:30:19;;;;;;;6.40;4.25;;;;;;;;;;4916752;29;20024;-82
2021/09/17 01:33:05;;;;;;;6.53;4.05;;;;;;;;;;4914927;29;20038;-83
2021/09/17 01:36:01;;;;;;;6.65;3.90;;;;;;;;;;4916125;29;20035;-82
2021/09/17 01:38:46;;;;;;;7.53;4.15;;;;;;;;;;4908665;29;20028;-82
2021/09/17 01:41:32;;;;;;;7.50;4.18;;;;;;;;;;4903279;29;20032;-83
2021/09/17 01:44:17;;;;;;;6.97;4.57;;;;;;;;;;4900397;29;20107;-83
2021/09/17 01:47:03;;;;;;;9.10;4.38;;;;;;;;;;4906783;29;20064;-83
2021/09/17 01:49:49;;;;;;;9.10;4.00;;;;;;;;;;4909247;29;20032;-83
2021/09/17 01:52:34;;;;;;;6.53;3.95;;;;;;;;;;4900012;29;20113;-83
2021/09/17 01:55:23;;;;;;;5.97;3.85;;;;;;;;;;4900630;29;20024;-83
2021/09/17 01:58:08;;;;;;;5.93;4.38;;;;;;;;;;4912108;29;20020;-83
2021/09/17 02:00:54;;;;;;;6.30;4.05;;;;;;;;;;4900013;29;20021;-84
2021/09/17 02:03:39;;;;;;;5.68;3.88;;;;;;;;;;4900117;29;20143;-83
2021/09/17 02:06:25;;;;;;;6.93;4.40;;;;;;;;;;4907656;29;20020;-83
2021/09/17 02:09:10;;;;;;;4.53;3.70;;;;;;;;;;4900129;29;20130;-82
2021/09/17 02:11:55;;;;;;;11.15;4.30;;;;;;;;;;4905830;29;20490;-83
2021/09/17 02:14:41;;;;;;;9.10;3.72;;;;;;;;;;4899294;29;20016;-83
2021/09/17 02:17:26;;;;;;;7.95;4.28;;;;;;;;;;4900172;29;20456;-82
2021/09/17 02:20:12;;;;;;;6.90;4.15;;;;;;;;;;4899387;29;20028;-83
2021/09/17 02:22:57;;;;;;;5.75;4.20;;;;;;;;;;4906119;29;20028;-83
2021/09/17 02:25:42;;;;;;;5.05;3.78;;;;;;;;;;4892426;29;20051;-83
2021/09/17 02:28:27;;;;;;;6.57;3.80;;;;;;;;;;4900901;29;20030;-84
2021/09/17 02:31:13;;;;;;;6.00;3.60;;;;;;;;;;4899943;29;20039;-84
2021/09/17 02:33:58;;;;;;;5.60;3.85;;;;;;;;;;4893821;29;20043;-84
2021/09/17 02:36:43;;;;;;;7.00;4.38;;;;;;;;;;4896753;29;20047;-83
2021/09/17 02:39:29;;;;;;;8.40;3.72;;;;;;;;;;4897934;29;20032;-84
2021/09/17 02:42:14;;;;;;;5.00;3.58;;;;;;;;;;4906863;29;20031;-84
2021/09/17 02:45:00;;;;;;;6.97;3.40;;;;;;;;;;4921761;29;20031;-83
2021/09/17 02:47:45;;;;;;;7.10;3.90;;;;;;;;;;4911645;29;20031;-83
2021/09/17 02:50:30;;;;;;;13.25;4.82;;;;;;;;;;4922301;29;20034;-83
2021/09/17 02:53:16;;;;;;;5.47;3.55;;;;;;;;;;4924008;29;20110;-83
2021/09/17 02:56:01;;;;;;;6.93;4.10;;;;;;;;;;4926153;29;20074;-83
2021/09/17 02:58:46;;;;;;;7.60;3.53;;;;;;;;;;4931492;29;20028;-84
2021/09/17 03:01:31;;;;;;;8.23;4.13;;;;;;;;;;4918428;29;20030;-84
2021/09/17 03:04:17;;;;;;;8.75;3.92;;;;;;;;;;4918877;29;20024;-83
2021/09/17 03:07:02;;;;;;;7.03;3.63;;;;;;;;;;4925738;29;20025;-84
2021/09/17 03:09:47;;;;;;;3.85;3.35;;;;;;;;;;4933424;29;20154;-83
2021/09/17 03:12:32;;;;;;;5.55;4.05;;;;;;;;;;4919457;29;20557;-83
2021/09/17 03:15:18;;;;;;;7.88;4.22;;;;;;;;;;4918983;29;20048;-83
2021/09/17 03:18:03;;;;;;;8.43;4.38;;;;;;;;;;4932841;29;20024;-83
2021/09/17 03:20:50;;;;;;;6.45;4.28;;;;;;;;;;4934580;29;20031;-83
2021/09/17 03:23:36;;;;;;;6.10;3.55;;;;;;;;;;4913219;29;20399;-83
2021/09/17 03:26:21;;;;;;;7.15;4.00;;;;;;;;;;4918595;29;20030;-83
2021/09/17 03:29:07;;;;;;;6.75;3.75;;;;;;;;;;4910526;29;20023;-82
2021/09/17 03:31:52;;;;;;;5.80;3.80;;;;;;;;;;4929927;29;20023;-82
2021/09/17 03:34:37;;;;;;;5.35;3.38;;;;;;;;;;4918906;29;20475;-83
2021/09/17 03:37:22;;;;;;;5.03;3.80;;;;;;;;;;4918140;29;20501;-83
2021/09/17 03:40:08;;;;;;;9.18;4.45;;;;;;;;;;4924776;29;20398;-83
2021/09/17 03:42:53;;;;;;;5.40;3.55;;;;;;;;;;4912840;29;20056;-83
2021/09/17 03:45:39;;;;;;;7.00;4.30;;;;;;;;;;4901852;29;20042;-82
2021/09/17 03:48:24;;;;;;;6.93;4.18;;;;;;;;;;4903226;29;20035;-83
2021/09/17 03:51:09;;;;;;;6.15;3.97;;;;;;;;;;4898712;29;20036;-82
2021/09/17 03:53:55;;;;;;;7.47;4.07;;;;;;;;;;4904103;29;20020;-83
2021/09/17 03:56:40;;;;;;;8.20;4.00;;;;;;;;;;4892526;29;20035;-83
2021/09/17 03:59:25;;;;;;;7.38;4.20;;;;;;;;;;4901325;29;20070;-83
2021/09/17 04:02:10;;;;;;;8.60;4.00;;;;;;;;;;4896083;29;20032;-83
2021/09/17 04:04:56;;;;;;;6.03;3.72;;;;;;;;;;4895966;29;20036;-83
2021/09/17 04:07:42;;;;;;;5.53;3.38;;;;;;;;;;4899996;29;20150;-83
2021/09/17 04:10:27;;;;;;;11.77;5.88;;;;;;;;;;4898421;29;20795;-83
2021/09/17 04:13:12;;;;;;;5.22;3.47;;;;;;;;;;4897928;29;20028;-83
2021/09/17 04:15:57;;;;;;;6.78;3.97;;;;;;;;;;4899446;29;20016;-82
2021/09/17 04:18:43;;;;;;;9.32;4.80;;;;;;;;;;4895649;29;20025;-83
2021/09/17 04:21:28;;;;;;;8.15;4.07;;;;;;;;;;4898400;29;20032;-83
2021/09/17 04:24:13;;;;;;;6.70;3.78;;;;;;;;;;4896872;29;20025;-82
2021/09/17 04:26:58;;;;;;;7.10;4.57;;;;;;;;;;4897887;29;20095;-82
2021/09/17 04:29:44;;;;;;;4.55;3.80;;;;;;;;;;4897805;29;20039;-83
2021/09/17 04:32:29;;;;;;;6.63;4.30;;;;;;;;;;4896844;29;20032;-81
2021/09/17 04:35:14;;;;;;;5.35;3.75;;;;;;;;;;4896252;29;20035;-82
2021/09/17 04:38:00;;;;;;;8.65;3.95;;;;;;;;;;4912733;29;20047;-83
2021/09/17 04:40:45;;;;;;;7.75;4.28;;;;;;;;;;4889896;29;20083;-82
2021/09/17 04:43:30;;;;;;;6.40;4.70;;;;;;;;;;4907278;29;20502;-83
2021/09/17 04:46:16;;;;;;;6.30;3.28;;;;;;;;;;4914278;29;20062;-83
2021/09/17 04:49:01;;;;;;;4.22;3.40;;;;;;;;;;4920381;29;20024;-83
2021/09/17 04:51:46;;;;;;;7.75;3.55;;;;;;;;;;4913440;29;20106;-82
2021/09/17 04:54:31;;;;;;;5.18;4.32;;;;;;;;;;4917071;29;20035;-82
2021/09/17 04:57:17;;;;;;;6.63;4.40;;;;;;;;;;4918403;29;20031;-83
2021/09/17 05:00:03;;;;;;;8.90;4.28;;;;;;;;;;4916871;29;20031;-82
2021/09/17 05:02:48;;;;;;;9.27;3.72;;;;;;;;;;4916617;29;20024;-84
2021/09/17 05:05:33;;;;;;;6.65;3.50;;;;;;;;;;4915448;29;20030;-84
2021/09/17 05:08:19;;;;;;;5.78;3.97;;;;;;;;;;4917127;29;20055;-85
2021/09/17 05:11:04;;;;;;;6.43;3.67;;;;;;;;;;4909856;29;20039;-83
2021/09/17 05:13:49;;;;;;;7.55;4.05;;;;;;;;;;4917443;29;20157;-84
2021/09/17 05:16:35;;;;;;;8.63;5.20;;;;;;;;;;4912648;29;20070;-84
2021/09/17 05:19:23;;;;;;;7.72;4.43;;;;;;;;;;4933131;29;20031;-83
2021/09/17 05:22:08;;;;;;;10.05;4.63;;;;;;;;;;4915703;29;20035;-82
2021/09/17 05:24:53;;;;;;;7.38;4.38;;;;;;;;;;4913364;29;20103;-83
2021/09/17 05:27:39;;;;;;;7.30;4.53;;;;;;;;;;4914453;29;20023;-86
2021/09/17 05:30:24;;;;;;;5.68;4.05;;;;;;;;;;4912072;29;20035;-84
2021/09/17 05:33:09;;;;;;;6.35;4.28;;;;;;;;;;4914125;29;20490;-84
2021/09/17 05:35:55;;;;;;;7.57;4.90;;;;;;;;;;4913161;29;20082;-82
2021/09/17 05:38:40;;;;;;;7.93;4.40;;;;;;;;;;4913842;29;20024;-83
2021/09/17 05:41:26;;;;;;;10.60;5.65;;;;;;;;;;4914774;29;20023;-84
2021/09/17 05:44:11;;;;;;;8.95;5.05;;;;;;;;;;4915055;29;20066;-85
2021/09/17 05:46:56;;;;;;;7.68;4.90;;;;;;;;;;4920017;29;20106;-86
2021/09/17 05:49:42;;;;;;;8.13;4.47;;;;;;;;;;4916441;29;20030;-85
2021/09/17 05:52:27;;;;;;;8.38;5.45;;;;;;;;;;4918455;29;20082;-94
2021/09/17 05:55:12;;;;;;;8.88;5.28;;;;;;;;;;4918977;29;20024;-87
2021/09/17 05:57:58;;;;;;;7.22;4.75;;;;;;;;;;4919286;29;20382;-92
2021/09/17 06:00:43;;;;;;;8.15;5.72;;;;;;;;;;4918304;29;20036;-90
2021/09/17 06:03:28;;;;;;;10.13;4.70;;;;;;;;;;4916862;29;20498;-89
2021/09/17 06:06:17;;;;;;;7.60;5.47;;;;;;;;;;4913946;29;20020;-92
2021/09/17 06:09:05;;;;;;;10.43;4.45;;;;;;;;;;4920330;29;20541;-91
2021/09/17 06:11:50;;;;;;;8.57;4.30;;;;;;;;;;4921664;29;20478;-88
2021/09/17 06:14:36;;;;;;;7.40;4.57;;;;;;;;;;4926929;29;20042;-90
2021/09/17 06:17:21;;;;;;;7.18;4.47;;;;;;;;;;4924182;29;20028;-92
2021/09/17 06:20:07;;;;;;;11.25;4.82;;;;;;;;;;4917957;29;20024;-86
2021/09/17 06:22:55;;;;;;;8.05;4.72;;;;;;;;;;4914439;29;20036;-89
2021/09/17 06:25:41;;;;;;;9.10;4.45;;;;;;;;;;4905635;29;20386;-89
2021/09/17 06:28:26;;;;;;;11.23;6.50;;;;;;;;;;4922632;29;20035;-91
2021/09/17 06:31:11;;;;;;;9.15;5.70;;;;;;;;;;4908853;29;20027;-90
2021/09/17 06:34:00;;;;;;;11.85;5.60;;;;;;;;;;4921921;29;20108;-92
2021/09/17 06:36:48;;;;;;;8.65;4.85;;;;;;;;;;4912476;29;20392;-91
2021/09/17 06:39:37;;;;;;;9.05;5.35;;;;;;;;;;4928290;29;20486;-90
2021/09/17 06:42:22;;;;;;;8.93;6.13;;;;;;;;;;4909857;29;20047;-93
2021/09/17 06:45:11;;;;;;;9.63;5.25;;;;;;;;;;4907593;29;20113;-92
2021/09/17 06:47:58;;;;;;;10.05;5.07;;;;;;;;;;4918998;29;20114;-88
2021/09/17 06:50:44;;;;;;;7.95;4.45;;;;;;;;;;4924806;29;20035;-88
2021/09/17 06:53:30;;;;;;;7.57;4.88;;;;;;;;;;4922711;29;20059;-87
2021/09/17 06:56:15;;;;;;;10.15;4.60;;;;;;;;;;4922485;29;20096;-89
2021/09/17 06:59:03;;;;;;;9.23;5.03;;;;;;;;;;4922399;29;20029;-87
2021/09/17 07:01:49;;;;;;;11.43;4.80;;;;;;;;;;4913205;29;20066;-87
2021/09/17 07:04:35;;;;;;;8.25;5.22;;;;;;;;;;4907494;29;20035;-87
2021/09/17 07:07:20;;;;;;;9.27;5.53;;;;;;;;;;4917599;29;20024;-87
2021/09/17 07:10:06;;;;;;;8.45;4.78;;;;;;;;;;4922196;29;20541;-89
2021/09/17 07:12:52;;;;;;;11.00;5.00;;;;;;;;;;4911314;29;20031;-86
2021/09/17 07:15:37;;;;;;;8.27;4.18;;;;;;;;;;4928286;29;20065;-88
2021/09/17 07:18:22;;;;;;;8.07;5.03;;;;;;;;;;4924812;29;20023;-87
2021/09/17 07:21:08;;;;;;;8.57;4.90;;;;;;;;;;4921106;29;20091;-86
2021/09/17 07:23:53;;;;;;;9.35;4.90;;;;;;;;;;4918195;29;20107;-86
2021/09/17 07:26:39;;;;;;;6.03;4.30;;;;;;;;;;4913159;29;20440;-88
2021/09/17 07:29:24;;;;;;;10.82;5.15;;;;;;;;;;4916834;29;20082;-88
2021/09/17 07:32:09;;;;;;;7.85;5.20;;;;;;;;;;4917532;29;20039;-88
2021/09/17 07:35:05;;;;;;;8.48;5.07;;;;;;;;;;4923258;29;20032;-89
2021/09/17 07:37:50;;;;;;;10.52;6.00;;;;;;;;;;4922126;29;20443;-87
2021/09/17 07:40:38;;;;;;;11.07;5.10;;;;;;;;;;4923384;29;20043;-90
2021/09/17 07:43:23;;;;;;;11.52;5.72;;;;;;;;;;4938799;29;20079;-86
2021/09/17 07:46:09;;;;;;;12.90;5.38;;;;;;;;;;4920714;29;20030;-87
2021/09/17 07:48:54;;;;;;;7.57;5.20;;;;;;;;;;4926423;29;20048;-89
2021/09/17 07:51:39;;;;;;;10.18;5.40;;;;;;;;;;4925526;29;20048;-85
2021/09/17 07:54:37;;;;;;;9.82;5.00;;;;;;;;;;4930348;29;20023;-87
2021/09/17 07:57:22;;;;;;;13.23;5.95;;;;;;;;;;4920121;29;20055;-86
2021/09/17 08:00:09;;;;;;;9.32;6.35;;;;;;;;;;4919858;29;20035;-81
2021/09/17 08:02:54;;;;;;;14.45;6.65;;;;;;;;;;4909757;29;20028;-83
2021/09/17 08:05:42;;;;;;;14.27;6.45;;;;;;;;;;4908634;29;20028;-82
2021/09/17 08:08:36;;;;;;;11.55;6.20;;;;;;;;;;4905558;29;20036;-83
2021/09/17 08:11:24;;;;;;;11.70;6.47;;;;;;;;;;4911514;29;20027;-82
2021/09/17 08:14:10;;;;;;;11.20;7.25;;;;;;;;;;4916580;29;20028;-84
2021/09/17 08:17:02;;;;;;;8.35;5.93;;;;;;;;;;4922940;29;20010;-84
2021/09/17 08:19:47;;;;;;;11.32;6.70;;;;;;;;;;4912685;29;20042;-84
2021/09/17 08:22:32;;;;;;;9.68;6.20;;;;;;;;;;4930320;29;20046;-84
2021/09/17 08:25:24;;;;;;;8.52;5.50;;;;;;;;;;4898278;29;20028;-83
2021/09/17 08:28:09;;;;;;;11.98;6.53;;;;;;;;;;4919802;29;20036;-81
2021/09/17 08:30:55;;;;;;;12.63;7.38;;;;;;;;;;4916302;29;20046;-84
2021/09/17 08:33:42;;;;;;;10.05;5.97;;;;;;;;;;4916673;29;20024;-84
2021/09/17 08:36:27;;;;;;;11.75;6.85;;;;;;;;;;4921254;29;20070;-84
2021/09/17 08:39:33;;;;;;;11.40;5.95;;;;;;;;;;4916461;29;20034;-83
2021/09/17 08:42:18;;;;;;;15.25;7.32;;;;;;;;;;4898886;29;20055;-82
2021/09/17 08:45:05;;;;;;;10.38;7.15;;;;;;;;;;4915787;29;20024;-86
2021/09/17 08:47:50;;;;;;;10.18;7.38;;;;;;;;;;4931841;29;20027;-88
2021/09/17 08:50:35;;;;;;;15.48;7.75;;;;;;;;;;4933684;28;20041;-86
2021/09/17 08:53:21;;;;;;;12.18;8.00;;;;;;;;;;4932776;28;20015;-89
2021/09/17 08:56:07;;;;;;;10.10;6.68;;;;;;;;;;4935264;28;20031;-88
2021/09/17 08:58:55;;;;;;;10.75;8.30;;;;;;;;;;4934702;29;20036;-87
2021/09/17 09:01:41;;;;;;;15.00;8.45;;;;;;;;;;4929296;29;20042;-87
2021/09/17 09:04:30;;;;;;;12.38;7.65;;;;;;;;;;4925455;29;20023;-88
2021/09/17 09:07:15;;;;;;;11.57;6.97;;;;;;;;;;4928809;29;20032;-87
2021/09/17 09:10:03;;;;;;;12.50;7.63;;;;;;;;;;4934000;29;20082;-86
2021/09/17 09:12:50;;;;;;;9.18;6.78;;;;;;;;;;4923671;29;20040;-85
2021/09/17 09:15:36;;;;;;;12.63;7.28;;;;;;;;;;4924853;29;20027;-87
2021/09/17 09:18:21;;;;;;;13.80;8.15;;;;;;;;;;4931161;29;20016;-88
2021/09/17 09:21:07;;;;;;;11.52;7.07;;;;;;;;;;4932428;29;20024;-85
2021/09/17 09:24:11;;;;;;;17.17;7.63;;;;;;;;;;4930468;29;20027;-87
2021/09/17 09:27:17;;;;;;;10.07;7.18;;;;;;;;;;4923120;29;20027;-85
2021/09/17 09:30:03;;;;;;;9.90;7.53;;;;;;;;;;4936607;29;20024;-88
2021/09/17 09:32:48;;;;;;;12.13;6.95;;;;;;;;;;4930770;29;20036;-85
2021/09/17 09:35:34;;;;;;;10.40;6.40;;;;;;;;;;4922597;29;20035;-88
2021/09/17 09:38:29;;;;;;;11.18;7.80;;;;;;;;;;4920305;29;20027;-86
2021/09/17 09:41:25;;;;;;;11.02;7.40;;;;;;;;;;4916042;29;20051;-87
2021/09/17 09:44:17;;;;;;;12.18;8.18;;;;;;;;;;4934213;29;20052;-86
2021/09/17 09:47:03;;;;;;;10.65;8.43;;;;;;;;;;4920812;29;20094;-88
2021/09/17 09:50:02;;;;;;;13.20;9.77;;;;;;;;;;4926008;29;20019;-87
2021/09/17 09:52:48;;;;;;;16.50;10.25;;;;;;;;;;4918891;29;20028;-88
2021/09/17 09:55:34;;;;;;;14.45;9.25;;;;;;;;;;4919450;29;20031;-86
2021/09/17 09:58:19;;;;;;;16.50;10.10;;;;;;;;;;4918228;29;20501;-88
2021/09/17 10:01:04;;;;;;;15.40;9.10;;;;;;;;;;4921250;29;20398;-89
2021/09/17 10:03:53;;;;;;;11.25;8.38;;;;;;;;;;4933678;29;20070;-89
2021/09/17 10:06:39;;;;;;;15.27;8.97;;;;;;;;;;4921160;29;20028;-84
2021/09/17 10:09:25;;;;;;;11.60;7.10;;;;;;;;;;4936333;29;20016;-93
2021/09/17 10:12:11;;;;;;;11.38;7.55;;;;;;;;;;4924753;29;20093;-87
2021/09/17 10:14:57;;;;;;;15.15;7.28;;;;;;;;;;4914205;29;20544;-87
2021/09/17 10:17:48;;;;;;;11.55;7.35;;;;;;;;;;4926117;29;20471;-85
2021/09/17 10:20:37;;;;;;;12.38;7.70;;;;;;;;;;4922112;29;20502;-84
2021/09/17 10:23:26;;;;;;;11.43;7.18;;;;;;;;;;4920442;29;20027;-88
2021/09/17 10:26:12;;;;;;;9.57;7.50;;;;;;;;;;4920883;29;20024;-84
2021/09/17 10:29:09;;;;;;;8.93;6.32;;;;;;;;;;4911238;29;20032;-85
2021/09/17 10:31:59;;;;;;;8.27;5.53;;;;;;;;;;4914482;29;20035;-84
2021/09/17 10:34:58;;;;;;;7.50;4.78;;;;;;;;;;4918027;29;20040;-84
2021/09/17 10:41:12;;;;;;;8.57;5.82;;;;;;;;;;4856946;29;20025;-84
2021/09/17 10:44:00;;;;;;;9.68;5.97;;;;;;;;;;4916192;29;20199;-85
2021/09/17 10:46:45;;;;;;;10.13;6.40;;;;;;;;;;4917082;29;20027;-85
2021/09/17 10:49:50;;;;;;;12.70;6.78;;;;;;;;;;4917562;29;20271;-85
2021/09/17 10:52:39;;;;;;;8.43;5.85;;;;;;;;;;4914971;29;20032;-85
2021/09/17 10:55:24;;;;;;;;;;;;;;;;;;4919479;29;20510;-86
2021/09/17 10:58:19;;;;;;;6.82;4.47;;;;;;;;;;4921582;29;20001;-86
2021/09/17 11:01:05;;;;;;;9.10;4.25;;;;;;;;;;4907086;29;20034;-87
2021/09/17 11:03:53;;;;;;;6.15;3.83;;;;;;;;;;4915938;29;20542;-86
2021/09/17 11:06:39;;;;;;;7.90;4.25;;;;;;;;;;4914785;29;21196;-84
2021/09/17 11:09:44;;;;;;;9.75;5.15;;;;;;;;;;4919056;29;20019;-85
2021/09/17 11:12:29;;;;;;;6.85;3.53;;;;;;;;;;4916595;29;20032;-86
2021/09/17 11:15:18;;;;;;;5.55;3.78;;;;;;;;;;4916114;29;20047;-88
2021/09/17 11:18:15;;;;;;;6.35;3.60;;;;;;;;;;4906738;29;20471;-88
2021/09/17 11:21:14;;;;;;;4.95;3.10;;;;;;;;;;4919316;29;20028;-87
2021/09/17 11:24:00;;;;;;;7.30;3.40;;;;;;;;;;4911343;29;20056;-88
2021/09/17 11:26:46;;;;;;;5.50;3.35;;;;;;;;;;4914415;29;20063;-88
2021/09/17 11:29:31;;;;;;;5.95;3.15;;;;;;;;;;4920207;29;20023;-88
2021/09/17 11:32:26;;;;;;;4.93;3.15;;;;;;;;;;4905346;29;20030;-89
2021/09/17 11:35:12;;;;;;;4.50;2.70;;;;;;;;;;4916645;29;20032;-93
2021/09/17 11:38:01;;;;;;;5.55;2.88;;;;;;;;;;4906992;29;20491;-87
2021/09/17 11:40:51;;;;;;;7.05;2.85;;;;;;;;;;4918430;29;20075;-88
2021/09/17 11:43:43;;;;;;;5.25;3.08;;;;;;;;;;4920739;29;20055;-90
2021/09/17 11:46:29;;;;;;;6.90;3.00;;;;;;;;;;4901221;29;20031;-92
2021/09/17 11:49:22;;;;;;;6.43;3.20;;;;;;;;;;4921037;29;20023;-89
2021/09/17 11:52:09;;;;;;;9.30;3.55;;;;;;;;;;4902276;29;20172;-90
2021/09/17 11:55:01;;;;;;;6.40;3.53;;;;;;;;;;4917687;29;20038;-92
2021/09/17 11:57:48;;;;;;;7.53;3.55;;;;;;;;;;4915014;29;20024;-93
2021/09/17 12:00:33;;;;;;;7.03;4.15;;;;;;;;;;4903983;29;20621;-90
2021/09/17 12:03:22;;;;;;;6.43;3.95;;;;;;;;;;4903967;29;20027;-94
2021/09/17 12:06:07;;;;;;;6.57;4.25;;;;;;;;;;4914432;29;20095;-95
2021/09/17 12:08:56;;;;;;;7.75;5.15;;;;;;;;;;4923342;29;20509;-94
2021/09/17 12:11:42;;;;;;;6.95;4.60;;;;;;;;;;4921539;29;20124;-91
2021/09/17 12:14:27;;;;;;;8.98;5.22;;;;;;;;;;4916877;29;20553;-88
2021/09/17 12:17:12;;;;;;;11.18;4.70;;;;;;;;;;4918819;29;20502;-89
2021/09/17 12:20:05;;;;;;;9.57;4.05;;;;;;;;;;4915393;29;20036;-89
2021/09/17 12:22:55;;;;;;;9.70;3.97;;;;;;;;;;4917416;29;20098;-88
2021/09/17 12:25:42;;;;;;;7.55;3.72;;;;;;;;;;4912370;29;20060;-93
2021/09/17 12:28:27;;;;;;;8.60;2.97;;;;;;;;;;4921084;29;20082;-92
2021/09/17 12:31:28;;;;;;;4.93;2.75;;;;;;;;;;4916419;29;20024;-93
2021/09/17 12:34:17;;;;;;;3.47;2.70;;;;;;;;;;4889661;29;20027;-92
2021/09/17 12:37:04;;;;;;;7.35;3.60;;;;;;;;;;4919124;29;20063;-93
2021/09/17 12:39:49;;;;;;;5.20;2.70;;;;;;;;;;4918659;29;20039;-92
2021/09/17 12:42:35;;;;;;;3.97;2.40;;;;;;;;;;4922222;29;20071;-90
2021/09/17 12:45:20;;;;;;;4.90;2.58;;;;;;;;;;4914102;29;20088;-90
2021/09/17 12:48:09;;;;;;;4.47;2.50;;;;;;;;;;4932802;29;20031;-92
2021/09/17 12:51:03;;;;;;;4.43;2.33;;;;;;;;;;4930670;29;20028;-91
2021/09/17 12:53:59;;;;;;;4.75;2.45;;;;;;;;;;4918988;29;20035;-93
2021/09/17 12:56:48;;;;;;;3.35;2.30;;;;;;;;;;4914576;29;20421;-91
2021/09/17 12:59:50;;;;;;;3.40;2.25;;;;;;;;;;4923629;29;20099;-91
2021/09/17 13:02:39;;;;;;;2.92;2.47;;;;;;;;;;4915257;29;20470;-92
2021/09/17 13:05:29;;;;;;;4.75;2.50;;;;;;;;;;4921034;29;20024;-92
2021/09/17 13:08:27;;;;;;;4.05;2.60;;;;;;;;;;4919485;29;20024;-90
2021/09/17 13:11:12;;;;;;;6.22;2.50;;;;;;;;;;4913094;29;20364;-90
2021/09/17 13:14:04;;;;;;;5.93;3.08;;;;;;;;;;4932237;29;20070;-91
2021/09/17 13:16:49;;;;;;;3.67;2.53;;;;;;;;;;4928413;29;20035;-91
2021/09/17 13:19:35;;;;;;;6.03;3.20;;;;;;;;;;4925350;29;20024;-91
2021/09/17 13:26:35;;;;;;;5.35;3.08;;;;;;;;;;4849401;29;20045;-93
2021/09/17 13:29:31;;;;;;;5.25;3.58;;;;;;;;;;4874767;29;20099;-88
2021/09/17 13:50:51;;;;;;;4.50;2.53;;;;;;;;;;4908297;29;20056;-90
2021/09/17 13:53:37;;;;;;;2.17;1.98;;;;;;;;;;4895190;29;20135;-90
2021/09/17 13:56:25;;;;;;;3.10;2.60;;;;;;;;;;4905942;29;20024;-92
2021/09/17 13:59:10;;;;;;;5.38;2.40;;;;;;;;;;4891596;29;20032;-91
2021/09/17 14:01:55;;;;;;;2.60;2.10;;;;;;;;;;4904809;29;20032;-90
2021/09/17 14:04:41;;;;;;;7.22;2.63;;;;;;;;;;4894676;29;20074;-89
2021/09/17 14:07:54;;;;;;;2.67;2.10;;;;;;;;;;4895817;29;20456;-92
2021/09/17 14:10:40;;;;;;;3.70;2.25;;;;;;;;;;4887081;29;20032;-90
2021/09/17 14:13:25;;;;;;;3.30;2.15;;;;;;;;;;4896943;29;20704;-88
2021/09/17 14:16:10;;;;;;;2.95;2.42;;;;;;;;;;4900958;29;20119;-92
2021/09/17 14:18:56;;;;;;;4.47;2.80;;;;;;;;;;4893765;29;20064;-88
2021/09/17 16:33:53;;;;;;;6.10;3.15;;;;;;;;;;5053432;23;20047;-89
2021/09/17 16:36:39;;;;;;;5.32;2.88;;;;;;;;;;4941682;28;20042;-91
2021/09/17 16:39:24;;;;;;;8.82;3.53;;;;;;;;;;4942125;29;20034;-92
2021/09/17 16:42:10;;;;;;;8.48;3.63;;;;;;;;;;4940764;29;20027;-92
2021/09/17 16:44:55;;;;;;;7.22;4.15;;;;;;;;;;4938492;29;20023;-88
2021/09/17 16:47:41;;;;;;;10.90;4.32;;;;;;;;;;4934914;29;20028;-89
2021/09/17 16:50:26;;;;;;;7.35;3.58;;;;;;;;;;4931139;29;20019;-91
2021/09/17 16:53:12;;;;;;;8.80;4.10;;;;;;;;;;4933786;29;20055;-91
2021/09/17 16:56:00;;;;;;;5.38;2.92;;;;;;;;;;4939935;29;20026;-91
2021/09/17 16:58:46;;;;;;;6.30;3.60;;;;;;;;;;4938383;29;20039;-91
2021/09/17 17:01:31;;;;;;;8.68;3.65;;;;;;;;;;4939160;29;20047;-92
2021/09/17 17:04:18;;;;;;;5.45;3.35;;;;;;;;;;4922533;29;20027;-89
2021/09/17 17:07:03;;;;;;;5.75;3.80;;;;;;;;;;4941176;29;20116;-91
2021/09/17 17:09:54;;;;;;;4.75;3.10;;;;;;;;;;4923662;29;20039;-91
2021/09/17 17:12:39;;;;;;;9.52;3.95;;;;;;;;;;4939441;29;20023;-92
2021/09/17 17:15:47;;;;;;;6.00;3.55;;;;;;;;;;4939412;29;20375;-90
2021/09/17 17:18:35;;;;;;;5.25;3.50;;;;;;;;;;4930689;29;20023;-91
2021/09/17 17:21:23;;;;;;;10.35;3.50;;;;;;;;;;4938424;29;20039;-91
2021/09/17 17:24:09;;;;;;;9.35;3.63;;;;;;;;;;4938158;29;20027;-91
2021/09/17 17:27:41;;;;;;;6.03;3.10;;;;;;;;;;4938779;29;20030;-91
2021/09/17 17:33:32;;;;;;;8.00;4.00;;;;;;;;;;4934407;29;20125;-92
2021/09/17 17:36:26;;;;;;;5.07;3.50;;;;;;;;;;4938190;29;20043;-90
2021/09/17 17:39:11;;;;;;;21.65;8.63;;;;;;;;;;4937138;29;20031;-92
2021/09/17 17:41:58;;;;;;;11.20;4.30;;;;;;;;;;4920598;29;20481;-91
2021/09/17 17:44:46;;;;;;;6.80;3.90;;;;;;;;;;4938933;29;20111;-92
2021/09/17 17:47:39;;;;;;;9.65;3.47;;;;;;;;;;4939503;29;20054;-92
2021/09/17 17:50:24;;;;;;;5.43;3.45;;;;;;;;;;4936916;29;20029;-88
2021/09/17 17:53:10;;;;;;;7.28;4.13;;;;;;;;;;4938610;29;20499;-89
2021/09/17 17:55:58;;;;;;;5.22;3.80;;;;;;;;;;4937868;29;20493;-90
2021/09/17 17:58:43;;;;;;;6.18;3.45;;;;;;;;;;4940049;29;20075;-90
2021/09/17 18:01:28;;;;;;;5.93;3.83;;;;;;;;;;4936067;28;20117;-89
2021/09/17 18:04:14;;;;;;;8.43;3.53;;;;;;;;;;4936269;29;20102;-88
2021/09/17 18:06:59;;;;;;;8.07;4.38;;;;;;;;;;4935711;29;20019;-88
2021/09/17 18:09:45;;;;;;;8.55;4.35;;;;;;;;;;4938136;29;20027;-89
2021/09/17 18:12:30;;;;;;;5.43;4.00;;;;;;;;;;4933850;29;20038;-89
2021/09/17 18:15:18;;;;;;;10.52;3.85;;;;;;;;;;4936629;29;20020;-91
2021/09/17 18:18:09;;;;;;;7.28;4.00;;;;;;;;;;4934485;29;20020;-90
2021/09/17 18:20:54;;;;;;;5.88;4.13;;;;;;;;;;4925553;29;20019;-90
2021/09/17 18:23:40;;;;;;;8.63;5.20;;;;;;;;;;4937989;29;20114;-90
2021/09/17 18:26:25;;;;;;;5.78;4.25;;;;;;;;;;4937444;29;20035;-90
2021/09/17 18:29:13;;;;;;;4.88;3.25;;;;;;;;;;4927661;29;20046;-89
2021/09/17 18:31:59;;;;;;;7.20;3.88;;;;;;;;;;4922179;29;20034;-92
2021/09/17 18:34:52;;;;;;;7.93;4.18;;;;;;;;;;4941659;29;20054;-89
2021/09/17 18:37:37;;;;;;;7.38;3.70;;;;;;;;;;4922539;29;20087;-89
2021/09/17 18:40:24;;;;;;;16.98;9.68;;;;;;;;;;4942045;29;20027;-90
2021/09/17 18:43:09;;;;;;;13.25;4.97;;;;;;;;;;4941663;29;20026;-91
2021/09/17 18:45:57;;;;;;;8.10;4.70;;;;;;;;;;4937100;29;20027;-89
2021/09/17 18:48:45;;;;;;;6.10;4.30;;;;;;;;;;4940323;29;20023;-89
2021/09/17 18:51:31;;;;;;;6.85;3.95;;;;;;;;;;4940480;29;20027;-91
2021/09/17 18:54:19;;;;;;;7.47;5.07;;;;;;;;;;4938555;29;20060;-89
2021/09/17 18:57:04;;;;;;;7.45;3.63;;;;;;;;;;4944804;29;21101;-89
2021/09/17 18:59:50;;;;;;;7.18;3.70;;;;;;;;;;4944169;29;20031;-90
2021/09/17 19:02:38;;;;;;;7.13;3.92;;;;;;;;;;4944361;28;20050;-91
2021/09/17 19:05:23;;;;;;;12.45;4.45;;;;;;;;;;4938321;29;20023;-89
2021/09/17 19:08:10;;;;;;;10.60;5.05;;;;;;;;;;4940723;29;20031;-88
2021/09/17 19:10:55;;;;;;;12.63;5.18;;;;;;;;;;4941782;29;20027;-89
2021/09/17 19:13:41;;;;;;;10.02;4.70;;;;;;;;;;4940716;29;20024;-90
2021/09/17 19:16:26;;;;;;;10.70;5.18;;;;;;;;;;4931043;29;20051;-91
2021/09/17 19:19:12;;;;;;;9.63;4.60;;;;;;;;;;4944115;29;20313;-90
2021/09/17 19:21:58;;;;;;;8.10;4.65;;;;;;;;;;4946214;29;20030;-90